createdAt,value
2018-09-04T00:01:04.810Z,13.50
2018-09-04T00:03:33.076Z,16.80
2018-09-04T00:06:01.371Z,19.03
2018-09-04T00:08:29.614Z,17.40
2018-09-04T00:10:57.909Z,20.07
2018-09-04T00:13:26.193Z,17.97
2018-09-04T00:16:05.293Z,15.67
2018-09-04T00:18:33.546Z,17.30
2018-09-04T00:21:01.795Z,18.13
2018-09-04T00:23:30.039Z,20.03
2018-09-04T00:25:58.314Z,18.70
2018-09-04T00:28:26.744Z,17.53
2018-09-04T00:30:54.996Z,21.33
2018-09-04T00:33:23.322Z,16.50
2018-09-04T00:35:51.613Z,22.17
2018-09-04T00:38:19.881Z,20.67
2018-09-04T00:40:48.176Z,24.90
2018-09-04T00:43:16.538Z,17.73
2018-09-04T00:45:44.834Z,16.80
2018-09-04T00:48:13.104Z,18.97
2018-09-04T00:50:41.394Z,18.03
2018-09-04T00:53:09.645Z,21.27
2018-09-04T00:55:37.924Z,18.27
2018-09-04T00:58:06.261Z,22.13
2018-09-04T01:00:34.454Z,22.30
2018-09-04T01:03:02.735Z,17.43
2018-09-04T01:05:31.035Z,17.33
2018-09-04T01:07:59.315Z,17.23
2018-09-04T01:10:27.650Z,16.93
2018-09-04T01:12:56.016Z,14.50
2018-09-04T01:15:24.258Z,17.80
2018-09-04T01:17:52.495Z,17.93
2018-09-04T01:20:20.787Z,21.30
2018-09-04T01:22:49.091Z,21.10
2018-09-04T01:25:17.350Z,16.70
2018-09-04T01:27:45.646Z,22.60
2018-09-04T01:30:13.898Z,16.10
2018-09-04T01:32:42.138Z,19.07
2018-09-04T01:35:10.365Z,21.10
2018-09-04T01:37:38.624Z,24.53
2018-09-04T01:40:06.912Z,23.70
2018-09-04T01:42:41.750Z,23.73
2018-09-04T01:45:09.974Z,17.80
2018-09-04T01:47:38.181Z,19.20
2018-09-04T01:50:06.456Z,24.40
2018-09-04T01:52:34.756Z,23.53
2018-09-04T01:55:03.049Z,24.70
2018-09-04T01:57:31.334Z,19.50
2018-09-04T01:59:59.558Z,21.77
2018-09-04T02:02:27.855Z,25.13
2018-09-04T02:04:56.213Z,21.70
2018-09-04T02:07:24.515Z,20.07
2018-09-04T02:09:52.789Z,25.30
2018-09-04T02:12:21.006Z,23.03
2018-09-04T02:14:49.343Z,22.13
2018-09-04T02:17:17.631Z,21.57
2018-09-04T02:19:45.909Z,22.70
2018-09-04T02:22:14.437Z,21.60
2018-09-04T02:24:42.685Z,19.87
2018-09-04T02:27:10.931Z,19.43
2018-09-04T02:29:39.166Z,23.90
2018-09-04T02:32:07.410Z,21.17
2018-09-04T02:34:35.653Z,25.00
2018-09-04T02:37:03.902Z,23.23
2018-09-04T02:39:32.160Z,27.10
2018-09-04T02:42:00.406Z,28.80
2018-09-04T02:44:28.645Z,31.83
2018-09-04T02:46:56.873Z,27.23
2018-09-04T02:49:25.144Z,31.83
2018-09-04T02:51:53.422Z,26.50
2018-09-04T02:54:21.788Z,33.23
2018-09-04T02:56:49.990Z,34.90
2018-09-04T02:59:18.274Z,34.87
2018-09-04T03:01:46.560Z,33.27
2018-09-04T03:04:14.805Z,31.80
2018-09-04T03:06:43.077Z,33.70
2018-09-04T03:09:11.322Z,32.20
2018-09-04T03:11:39.547Z,31.17
2018-09-04T03:14:08.088Z,30.97
2018-09-04T03:16:36.329Z,29.80
2018-09-04T03:19:04.644Z,31.43
2018-09-04T03:21:32.871Z,30.30
2018-09-04T03:24:01.562Z,30.50
2018-09-04T03:26:29.919Z,24.07
2018-09-04T03:28:58.290Z,28.97
2018-09-04T03:31:26.575Z,28.20
2018-09-04T03:33:58.457Z,23.40
2018-09-04T03:36:26.844Z,30.87
2018-09-04T03:38:55.098Z,31.73
2018-09-04T03:41:23.371Z,28.73
2018-09-04T03:43:51.666Z,28.13
2018-09-04T03:46:19.938Z,27.47
2018-09-04T03:48:48.215Z,35.93
2018-09-04T03:51:16.499Z,29.57
2018-09-04T03:53:44.763Z,30.83
2018-09-04T03:56:13.039Z,30.30
2018-09-04T03:58:41.354Z,31.47
2018-09-04T04:01:09.560Z,31.23
2018-09-04T04:03:37.805Z,28.00
2018-09-04T04:06:07.024Z,29.57
2018-09-04T04:08:35.334Z,30.87
2018-09-04T04:11:03.693Z,31.53
2018-09-04T04:13:32.198Z,33.47
2018-09-04T04:16:01.102Z,28.90
2018-09-04T04:18:29.354Z,30.33
2018-09-04T04:20:59.235Z,28.80
2018-09-04T04:23:28.566Z,31.17
2018-09-04T04:25:58.209Z,35.43
2018-09-04T04:28:26.727Z,30.17
2018-09-04T04:30:55.003Z,33.30
2018-09-04T04:33:23.496Z,29.87
2018-09-04T04:35:52.087Z,29.13
2018-09-04T04:38:20.690Z,24.33
2018-09-04T04:40:48.944Z,28.17
2018-09-04T04:43:17.239Z,32.77
2018-09-04T04:45:45.467Z,31.53
2018-09-04T04:48:13.721Z,28.60
2018-09-04T04:50:41.947Z,34.13
2018-09-04T04:53:10.225Z,30.03
2018-09-04T04:55:38.530Z,28.27
2018-09-04T04:58:06.807Z,31.93
2018-09-04T05:00:35.134Z,24.63
2018-09-04T05:03:03.397Z,31.57
2018-09-04T05:05:31.727Z,28.67
2018-09-04T05:08:00.088Z,29.80
2018-09-04T05:10:28.325Z,28.10
2018-09-04T05:12:56.573Z,34.47
2018-09-04T05:15:24.856Z,28.53
2018-09-04T05:17:53.102Z,25.70
2018-09-04T05:20:24.475Z,26.97
2018-09-04T05:22:52.821Z,28.37
2018-09-04T05:25:21.095Z,26.13
2018-09-04T05:27:49.319Z,29.83
2018-09-04T05:30:17.754Z,31.17
2018-09-04T05:32:50.056Z,30.17
2018-09-04T05:35:18.334Z,28.57
2018-09-04T05:37:47.566Z,28.80
2018-09-04T05:40:15.902Z,27.73
2018-09-04T05:42:53.240Z,30.30
2018-09-04T05:45:22.901Z,26.70
2018-09-04T05:47:55.372Z,25.10
2018-09-04T05:50:23.646Z,25.87
2018-09-04T05:52:52.240Z,27.33
2018-09-04T05:58:03.726Z,37.00
2018-09-04T06:00:35.682Z,30.27
2018-09-04T06:03:04.579Z,28.93
2018-09-04T06:05:33.327Z,27.50
2018-09-04T06:08:01.902Z,30.30
2018-09-04T06:10:31.931Z,32.03
2018-09-04T06:13:02.194Z,28.07
2018-09-04T06:15:32.674Z,31.17
2018-09-04T06:18:01.833Z,26.23
2018-09-04T06:20:30.688Z,26.33
2018-09-04T06:22:59.306Z,24.20
2018-09-04T06:25:27.873Z,25.87
2018-09-04T06:27:56.482Z,27.27
2018-09-04T06:30:24.917Z,28.47
2018-09-04T06:32:53.418Z,22.77
2018-09-04T06:35:21.985Z,28.90
2018-09-04T06:37:50.541Z,26.00
2018-09-04T06:40:19.147Z,31.53
2018-09-04T06:42:47.654Z,33.73
2018-09-04T06:45:16.298Z,26.10
2018-09-04T06:47:45.520Z,30.80
2018-09-04T06:50:13.799Z,32.37
2018-09-04T06:52:42.154Z,30.10
2018-09-04T06:55:10.583Z,35.47
2018-09-04T06:57:38.907Z,33.93
2018-09-04T07:00:09.619Z,33.83
2018-09-04T07:02:37.871Z,36.30
2018-09-04T07:05:06.945Z,37.53
2018-09-04T07:07:35.173Z,35.33
2018-09-04T07:10:03.493Z,43.67
2018-09-04T07:12:31.742Z,32.73
2018-09-04T07:15:00.075Z,39.10
2018-09-04T07:17:28.277Z,34.03
2018-09-04T07:19:56.567Z,28.77
2018-09-04T07:22:24.816Z,31.20
2018-09-04T07:24:53.066Z,31.03
2018-09-04T07:27:21.327Z,33.73
2018-09-04T07:29:49.557Z,35.87
2018-09-04T07:32:17.818Z,34.57
2018-09-04T07:34:46.237Z,32.77
2018-09-04T07:37:14.834Z,34.07
2018-09-04T07:39:43.587Z,35.93
2018-09-04T07:42:11.818Z,29.43
2018-09-04T07:44:40.165Z,32.90
2018-09-04T07:47:08.442Z,35.83
2018-09-04T07:49:36.722Z,39.40
2018-09-04T07:52:05.014Z,27.67
2018-09-04T07:54:33.262Z,27.13
2018-09-04T07:57:01.631Z,28.67
2018-09-04T08:02:09.130Z,32.57
2018-09-04T08:04:37.393Z,32.20
2018-09-04T08:07:05.784Z,27.57
2018-09-04T08:09:34.092Z,25.67
2018-09-04T08:12:02.479Z,27.33
2018-09-04T08:14:30.800Z,29.07
2018-09-04T08:16:59.118Z,32.40
2018-09-04T08:19:27.383Z,31.67
2018-09-04T08:21:55.591Z,28.30
2018-09-04T08:24:23.917Z,25.23
2018-09-04T08:26:52.241Z,25.40
2018-09-04T08:29:20.512Z,27.47
2018-09-04T08:31:48.840Z,27.10
2018-09-04T08:34:17.119Z,24.00
2018-09-04T08:36:45.394Z,24.90
2018-09-04T08:39:13.634Z,21.57
2018-09-04T08:41:41.926Z,21.83
2018-09-04T08:44:10.237Z,21.60
2018-09-04T08:46:38.555Z,23.53
2018-09-04T08:49:06.878Z,24.53
2018-09-04T08:51:35.208Z,24.13
2018-09-04T08:54:03.475Z,20.03
2018-09-04T08:56:31.947Z,18.70
2018-09-04T08:59:00.206Z,19.63
2018-09-04T09:01:28.487Z,16.97
2018-09-04T09:03:56.739Z,16.33
2018-09-04T09:06:25.526Z,18.47
2018-09-04T09:08:53.776Z,20.27
2018-09-04T09:11:22.014Z,19.50
2018-09-04T09:13:50.268Z,18.00
2018-09-04T09:16:18.512Z,22.53
2018-09-04T09:18:46.774Z,21.87
2018-09-04T09:21:15.042Z,21.60
2018-09-04T09:23:43.319Z,19.73
2018-09-04T09:26:11.610Z,21.57
2018-09-04T09:28:39.935Z,19.87
2018-09-04T09:31:08.262Z,21.77
2018-09-04T09:33:36.608Z,21.63
2018-09-04T09:36:04.941Z,21.13
2018-09-04T09:38:33.203Z,19.67
2018-09-04T09:41:01.457Z,22.10
2018-09-04T09:43:32.814Z,19.77
2018-09-04T09:46:01.077Z,18.23
2018-09-04T09:48:34.887Z,18.23
2018-09-04T09:51:03.347Z,17.53
2018-09-04T09:53:31.820Z,17.97
2018-09-04T09:56:02.704Z,18.53
2018-09-04T09:58:31.015Z,18.33
2018-09-04T10:01:04.675Z,19.70
2018-09-04T10:03:38.224Z,17.37
2018-09-04T10:06:06.998Z,17.20
2018-09-04T10:08:35.276Z,17.23
2018-09-04T10:11:03.638Z,16.00
2018-09-04T10:13:32.519Z,15.90
2018-09-04T10:16:00.873Z,17.83
2018-09-04T10:18:29.351Z,15.13
2018-09-04T10:20:57.748Z,15.70
2018-09-04T10:23:26.104Z,16.60
2018-09-04T10:25:54.596Z,14.33
2018-09-04T10:28:22.948Z,14.90
2018-09-04T10:30:51.467Z,11.83
2018-09-04T10:33:20.008Z,12.23
2018-09-04T10:35:48.296Z,16.33
2018-09-04T10:38:16.670Z,12.33
2018-09-04T10:40:46.777Z,11.77
2018-09-04T10:43:15.170Z,8.77
2018-09-04T10:46:04.257Z,13.50
2018-09-04T10:48:32.968Z,12.13
2018-09-04T10:51:01.609Z,10.50
2018-09-04T10:53:29.957Z,10.53
2018-09-04T10:55:58.224Z,9.53
2018-09-04T10:58:26.511Z,9.27
2018-09-04T11:00:54.790Z,10.37
2018-09-04T11:03:23.246Z,10.17
2018-09-04T11:05:51.795Z,10.37
2018-09-04T11:08:20.195Z,8.67
2018-09-04T11:10:48.618Z,11.10
2018-09-04T11:13:16.982Z,10.80
2018-09-04T11:15:45.243Z,9.93
2018-09-04T11:18:13.673Z,10.93
2018-09-04T11:20:41.946Z,8.77
2018-09-04T11:23:11.140Z,9.47
2018-09-04T11:25:39.784Z,13.07
2018-09-04T11:28:08.303Z,10.83
2018-09-04T11:30:36.632Z,11.27
2018-09-04T11:33:04.962Z,10.27
2018-09-04T11:35:33.501Z,9.83
2018-09-04T11:38:01.822Z,10.23
2018-09-04T11:40:30.183Z,10.50
2018-09-04T11:42:58.841Z,11.20
2018-09-04T11:45:27.106Z,9.10
2018-09-04T11:47:55.743Z,10.80
2018-09-04T11:50:24.036Z,10.50
2018-09-04T11:52:52.397Z,12.03
2018-09-04T11:55:20.942Z,11.90
2018-09-04T11:57:49.329Z,8.90
2018-09-04T12:00:23.316Z,10.47
2018-09-04T12:02:51.898Z,8.97
2018-09-04T12:05:20.427Z,10.00
2018-09-04T12:07:49.583Z,9.20
2018-09-04T12:10:19.835Z,8.80
2018-09-04T12:12:48.401Z,10.40
2018-09-04T12:15:17.438Z,10.27
2018-09-04T12:17:45.874Z,10.37
2018-09-04T12:20:47.461Z,10.03
2018-09-04T12:23:15.844Z,10.13
2018-09-04T12:25:45.226Z,10.77
2018-09-04T12:28:13.594Z,9.80
2018-09-04T12:30:42.412Z,9.33
2018-09-04T12:33:10.792Z,9.67
2018-09-04T12:35:39.448Z,12.40
2018-09-04T12:38:09.762Z,11.70
2018-09-04T12:40:38.198Z,13.30
2018-09-04T12:43:06.605Z,13.07
2018-09-04T12:45:40.373Z,11.17
2018-09-04T12:48:10.976Z,12.23
2018-09-04T12:50:39.449Z,13.17
2018-09-04T12:53:07.935Z,14.33
2018-09-04T12:55:36.410Z,12.83
2018-09-04T12:58:04.717Z,12.53
2018-09-04T13:00:32.946Z,11.27
2018-09-04T13:03:01.408Z,10.43
2018-09-04T13:05:29.632Z,9.10
2018-09-04T13:07:58.009Z,13.70
2018-09-04T13:10:26.525Z,12.37
2018-09-04T13:12:54.801Z,10.13
2018-09-04T13:15:23.280Z,14.27
2018-09-04T13:17:51.597Z,11.10
2018-09-04T13:20:19.932Z,11.07
2018-09-04T13:22:48.855Z,11.27
2018-09-04T13:25:17.247Z,13.47
2018-09-04T13:27:46.722Z,12.90
2018-09-04T13:30:15.022Z,12.53
2018-09-04T13:32:43.614Z,11.23
2018-09-04T13:35:11.947Z,11.63
2018-09-04T13:37:41.629Z,10.77
2018-09-04T13:40:09.983Z,10.93
2018-09-04T13:42:38.593Z,10.07
2018-09-04T13:45:06.974Z,9.73
2018-09-04T13:47:35.458Z,11.53
2018-09-04T13:50:03.709Z,11.40
2018-09-04T13:52:32.607Z,9.63
2018-09-04T13:55:00.964Z,11.00
2018-09-04T13:57:29.756Z,10.83
2018-09-04T13:59:58.180Z,9.53
2018-09-04T14:02:26.922Z,12.23
2018-09-04T14:04:55.316Z,9.23
2018-09-04T14:07:23.700Z,10.80
2018-09-04T14:09:53.320Z,10.90
2018-09-04T14:12:21.901Z,12.43
2018-09-04T14:14:50.421Z,12.63
2018-09-04T14:17:19.846Z,11.80
2018-09-04T14:19:48.191Z,10.80
2018-09-04T14:22:16.966Z,13.17
2018-09-04T14:24:45.357Z,10.70
2018-09-04T14:27:13.636Z,12.37
2018-09-04T14:30:15.530Z,15.50
2018-09-04T14:32:10.204Z,15.17
2018-09-04T14:34:38.822Z,11.47
2018-09-04T14:37:07.279Z,12.50
2018-09-04T14:39:35.509Z,12.60
2018-09-04T14:42:03.814Z,11.27
2018-09-04T14:44:32.063Z,10.97
2018-09-04T14:47:00.375Z,13.83
2018-09-04T14:49:28.676Z,10.13
2018-09-04T14:51:57.214Z,12.07
2018-09-04T14:54:25.485Z,10.70
2018-09-04T14:56:53.966Z,11.17
2018-09-04T14:59:22.327Z,11.37
2018-09-04T15:01:50.651Z,10.23
2018-09-04T15:04:19.071Z,10.27
2018-09-04T15:06:47.698Z,10.40
2018-09-04T15:09:16.976Z,12.20
2018-09-04T15:11:45.258Z,12.33
2018-09-04T15:14:13.734Z,9.27
2018-09-04T15:16:42.020Z,9.07
2018-09-04T15:19:10.443Z,9.93
2018-09-04T15:21:38.771Z,11.37
2018-09-04T15:24:07.145Z,10.73
2018-09-04T15:26:35.737Z,10.90
2018-09-04T15:29:04.041Z,14.87
2018-09-04T15:31:32.351Z,13.53
2018-09-04T15:34:01.998Z,9.80
2018-09-04T15:36:30.273Z,12.33
2018-09-04T15:38:58.548Z,10.17
2018-09-04T15:41:26.808Z,11.20
2018-09-04T15:43:55.139Z,14.60
2018-09-04T15:46:23.444Z,12.47
2018-09-04T15:48:57.152Z,11.17
2018-09-04T15:51:25.458Z,9.00
2018-09-04T15:53:53.726Z,6.87
2018-09-04T15:56:22.023Z,10.67
2018-09-04T15:58:50.298Z,11.50
2018-09-04T16:01:18.548Z,10.33
2018-09-04T16:03:46.880Z,30.40
2018-09-04T16:06:15.214Z,34.37
2018-09-04T16:08:43.464Z,14.47
2018-09-04T16:11:11.845Z,18.00
2018-09-04T16:13:40.166Z,16.70
2018-09-04T16:16:08.478Z,21.00
2018-09-04T16:18:36.929Z,19.30
2018-09-04T16:21:05.230Z,22.70
2018-09-04T16:23:33.525Z,29.13
2018-09-04T16:26:01.966Z,27.63
2018-09-04T16:28:30.209Z,31.33
2018-09-04T16:30:58.558Z,33.07
2018-09-04T16:33:26.939Z,33.73
2018-09-04T16:35:55.278Z,37.90
2018-09-04T16:38:23.572Z,38.27
2018-09-04T16:40:51.825Z,41.50
2018-09-04T16:43:20.136Z,45.80
2018-09-04T16:45:48.667Z,41.60
2018-09-04T16:48:17.006Z,47.03
2018-09-04T16:50:45.490Z,47.63
2018-09-04T16:53:13.813Z,46.57
2018-09-04T16:55:42.045Z,45.47
2018-09-04T16:58:10.366Z,44.57
2018-09-04T17:00:38.607Z,45.03
2018-09-04T17:03:06.886Z,41.53
2018-09-04T17:05:35.306Z,42.77
2018-09-04T17:08:03.711Z,40.30
2018-09-04T17:10:32.526Z,37.57
2018-09-04T17:13:01.473Z,37.60
2018-09-04T17:15:30.108Z,42.40
2018-09-04T17:17:58.822Z,40.23
2018-09-04T17:20:27.302Z,47.03
2018-09-04T17:22:56.000Z,60.77
2018-09-04T17:25:25.479Z,47.30
2018-09-04T17:27:54.965Z,48.33
2018-09-04T17:30:24.299Z,47.63
2018-09-04T17:32:53.115Z,53.27
2018-09-04T17:35:23.072Z,47.47
2018-09-04T17:37:51.418Z,57.43
2018-09-04T17:40:20.005Z,59.47
2018-09-04T17:42:48.892Z,46.77
2018-09-04T17:45:17.163Z,46.70
2018-09-04T17:47:45.432Z,50.33
2018-09-04T17:50:13.671Z,40.80
2018-09-04T17:52:43.135Z,60.17
2018-09-04T17:55:11.370Z,41.17
2018-09-04T17:57:39.850Z,42.87
2018-09-04T18:00:16.142Z,42.97
2018-09-04T18:02:44.406Z,45.33
2018-09-04T18:05:12.798Z,46.37
2018-09-04T18:07:41.670Z,48.83
2018-09-04T18:10:09.902Z,49.50
2018-09-04T18:12:38.212Z,57.30
2018-09-04T18:15:06.750Z,54.33
2018-09-04T18:17:35.121Z,50.97
2018-09-04T18:20:03.631Z,57.53
2018-09-04T18:22:31.882Z,58.83
2018-09-04T18:25:00.226Z,61.23
2018-09-04T18:27:28.498Z,67.83
2018-09-04T18:29:56.796Z,71.67
2018-09-04T18:32:25.008Z,62.90
2018-09-04T18:34:53.659Z,62.67
2018-09-04T18:37:33.361Z,76.07
2018-09-04T18:40:06.566Z,71.07
2018-09-04T18:42:36.878Z,56.67
2018-09-04T18:45:06.594Z,56.17
2018-09-04T18:47:45.191Z,55.83
2018-09-04T18:50:13.449Z,51.40
2018-09-04T18:52:44.228Z,65.20
2018-09-04T18:55:15.334Z,63.40
2018-09-04T18:57:45.337Z,52.33
2018-09-04T19:00:15.971Z,48.17
2018-09-04T19:02:55.704Z,56.27
2018-09-04T19:05:29.349Z,66.30
2018-09-04T19:08:02.539Z,69.00
2018-09-04T19:10:31.266Z,52.80
2018-09-04T19:12:59.522Z,61.60
2018-09-04T19:15:28.980Z,60.70
2018-09-04T19:17:57.367Z,56.60
2018-09-04T19:20:25.766Z,54.03
2018-09-04T19:22:53.978Z,60.47
2018-09-04T19:25:22.250Z,65.70
2018-09-04T19:27:50.689Z,64.67
2018-09-04T19:30:20.259Z,69.37
2018-09-04T19:32:49.281Z,53.53
2018-09-04T19:35:18.310Z,59.00
2018-09-04T19:37:46.566Z,63.10
2018-09-04T19:40:14.816Z,64.23
2018-09-04T19:42:43.463Z,71.50
2018-09-04T19:45:12.439Z,59.07
2018-09-04T19:47:40.878Z,63.63
2018-09-04T19:50:10.296Z,65.57
2018-09-04T19:52:38.639Z,64.83
2018-09-04T19:55:08.181Z,80.63
2018-09-04T19:57:36.414Z,69.53
2018-09-04T20:00:04.936Z,69.27
2018-09-04T20:02:33.163Z,59.97
2018-09-04T20:05:01.416Z,70.70
2018-09-04T20:07:29.797Z,64.53
2018-09-04T20:09:58.011Z,66.87
2018-09-04T20:12:26.280Z,64.60
2018-09-04T20:14:54.511Z,65.10
2018-09-04T20:17:22.737Z,74.33
2018-09-04T20:19:51.112Z,67.63
2018-09-04T20:22:19.365Z,66.07
2018-09-04T20:24:47.589Z,61.97
2018-09-04T20:27:15.788Z,68.83
2018-09-04T20:29:43.998Z,66.53
2018-09-04T20:32:12.248Z,66.57
2018-09-04T20:34:40.467Z,72.53
2018-09-04T20:37:08.712Z,70.70
2018-09-04T20:39:36.984Z,75.23
2018-09-04T20:42:05.244Z,75.27
2018-09-04T20:44:33.502Z,75.43
2018-09-04T20:47:01.926Z,75.90
2018-09-04T20:49:30.242Z,73.13
2018-09-04T20:51:58.524Z,63.03
2018-09-04T20:54:26.774Z,70.23
2018-09-04T20:57:00.626Z,64.20
2018-09-04T20:59:40.287Z,75.97
2018-09-04T21:02:19.943Z,88.30
2018-09-04T21:04:59.611Z,73.90
2018-09-04T21:07:51.860Z,78.03
2018-09-04T21:10:20.135Z,80.77
2018-09-04T21:12:48.443Z,83.07
2018-09-04T21:15:17.341Z,84.43
2018-09-04T21:17:45.630Z,82.47
2018-09-04T21:20:13.999Z,86.50
2018-09-04T21:22:42.290Z,84.53
2018-09-04T21:25:10.791Z,87.50
2018-09-04T21:27:39.139Z,95.90
2018-09-04T21:30:08.289Z,84.37
2018-09-04T21:32:37.417Z,90.97
2018-09-04T21:35:05.722Z,93.07
2018-09-04T21:37:34.295Z,86.40
2018-09-04T21:40:02.986Z,90.80
2018-09-04T21:42:31.360Z,103.73
2018-09-04T21:44:59.765Z,99.80
2018-09-04T21:47:27.999Z,111.77
2018-09-04T21:49:56.488Z,83.67
2018-09-04T21:52:25.493Z,82.73
2018-09-04T21:54:53.763Z,78.03
2018-09-04T21:57:21.979Z,88.17
2018-09-04T21:59:50.261Z,79.77
2018-09-04T22:02:18.458Z,84.57
2018-09-04T22:04:46.700Z,84.13
2018-09-04T22:07:14.970Z,90.10
2018-09-04T22:09:43.227Z,95.93
2018-09-04T22:12:11.950Z,94.80
2018-09-04T22:14:40.708Z,82.53
2018-09-04T22:17:08.914Z,87.27
2018-09-04T22:19:37.153Z,89.03
2018-09-04T22:22:05.438Z,99.93
2018-09-04T22:24:35.474Z,80.87
2018-09-04T22:27:07.795Z,82.67
2018-09-04T22:29:37.456Z,90.57
2018-09-04T22:32:06.045Z,96.10
2018-09-04T22:34:34.256Z,95.13
2018-09-04T22:37:03.313Z,98.80
2018-09-04T22:39:31.590Z,97.17
2018-09-04T22:42:00.060Z,95.60
2018-09-04T22:44:28.390Z,88.80
2018-09-04T22:46:56.659Z,86.83
2018-09-04T22:49:24.965Z,91.80
2018-09-04T22:51:57.433Z,113.60
2018-09-04T22:54:25.670Z,92.67
2018-09-04T22:56:53.951Z,94.30
2018-09-04T22:59:22.186Z,104.07
2018-09-04T23:01:50.633Z,94.73
2018-09-04T23:04:18.886Z,89.43
2018-09-04T23:06:47.222Z,85.20
2018-09-04T23:09:15.465Z,91.27
2018-09-04T23:11:43.708Z,94.93
2018-09-04T23:14:11.922Z,91.27
2018-09-04T23:16:40.226Z,105.50
2018-09-04T23:19:08.469Z,89.97
2018-09-04T23:21:36.709Z,94.87
2018-09-04T23:24:04.939Z,94.93
2018-09-04T23:26:33.162Z,93.90
2018-09-04T23:29:01.422Z,99.93
2018-09-04T23:31:29.705Z,93.00
2018-09-04T23:33:58.343Z,88.93
2018-09-04T23:36:26.572Z,86.23
2018-09-04T23:38:54.809Z,90.17
2018-09-04T23:41:23.146Z,91.83
2018-09-04T23:43:51.401Z,100.87
2018-09-04T23:46:19.669Z,86.17
2018-09-04T23:48:47.927Z,97.77
2018-09-04T23:51:16.199Z,96.83
2018-09-04T23:53:44.459Z,92.27
2018-09-04T23:56:12.655Z,85.23
2018-09-04T23:58:40.898Z,88.43
